Time;durP1;ratioP1;P1;durP2;ratioP2;P2;SDS_P1;SDS_P2;PMS_P1;PMS_P2;Temp;Humidity;BMP_temperature;BMP_pressure;BME280_temperature;BME280_humidity;BME280_pressure;Samples;Min_cycle;Max_cycle;Signal;HPM_P1;HPM_P2
2021/06/08 00:00:50;;;;;;;30.03;24.83;;;13.00;92.20;;;;;;5053516;28;20051;-72
2021/06/08 00:03:15;;;;;;;41.03;34.47;;;13.00;92.30;;;;;;5053860;28;20049;-72
2021/06/08 00:05:41;;;;;;;40.00;33.83;;;13.00;92.40;;;;;;5054326;28;20489;-73
2021/06/08 00:08:07;;;;;;;44.37;36.10;;;13.00;92.40;;;;;;5053542;28;20118;-72
2021/06/08 00:10:33;;;;;;;43.63;34.67;;;13.10;92.50;;;;;;5053650;28;20049;-72
2021/06/08 00:12:58;;;;;;;63.50;44.87;;;13.10;92.50;;;;;;5054200;28;20132;-72
2021/06/08 00:15:24;;;;;;;50.97;38.10;;;13.10;92.50;;;;;;5053267;28;20049;-72
2021/06/08 00:17:50;;;;;;;59.50;43.70;;;13.20;92.50;;;;;;5053825;28;20448;-72
2021/06/08 00:20:16;;;;;;;67.17;46.97;;;13.20;92.60;;;;;;5053364;28;20048;-72
2021/06/08 00:22:42;;;;;;;68.03;46.57;;;13.20;92.60;;;;;;5053122;28;20053;-72
2021/06/08 00:25:08;;;;;;;60.77;45.27;;;13.20;92.50;;;;;;5053529;28;20106;-72
2021/06/08 00:27:34;;;;;;;62.80;43.53;;;13.20;92.50;;;;;;5052466;28;20106;-72
2021/06/08 00:30:01;;;;;;;64.87;45.10;;;13.10;92.50;;;;;;5054005;28;20045;-72
2021/06/08 00:32:26;;;;;;;65.77;44.80;;;13.10;92.50;;;;;;5053884;28;20057;-72
2021/06/08 00:34:52;;;;;;;71.80;46.07;;;13.10;92.50;;;;;;5053107;28;20114;-72
2021/06/08 00:37:18;;;;;;;77.93;48.00;;;13.00;92.60;;;;;;5053868;28;20502;-73
2021/06/08 00:39:43;;;;;;;75.17;48.90;;;13.00;92.60;;;;;;5053129;28;20415;-72
2021/06/08 00:42:14;;;;;;;84.18;48.58;;;13.00;92.60;;;;;;5052308;28;20045;-72
2021/06/08 00:44:40;;;;;;;82.13;50.43;;;13.00;92.60;;;;;;5053326;28;20144;-72
2021/06/08 00:47:06;;;;;;;92.50;51.57;;;13.00;92.60;;;;;;5052875;28;20189;-72
2021/06/08 00:49:33;;;;;;;83.97;50.70;;;13.00;92.70;;;;;;5052184;28;20410;-72
2021/06/08 00:51:59;;;;;;;67.57;43.93;;;13.00;92.80;;;;;;5052809;28;20049;-72
2021/06/08 00:54:25;;;;;;;68.47;44.30;;;13.00;92.80;;;;;;5053160;28;20052;-72
2021/06/08 00:56:50;;;;;;;79.20;50.30;;;13.10;92.80;;;;;;5051482;28;20045;-71
2021/06/08 00:59:17;;;;;;;58.13;39.77;;;13.10;92.80;;;;;;5052619;28;20107;-72
2021/06/08 01:01:45;;;;;;;63.37;44.60;;;13.10;93.20;;;;;;5052979;28;20048;-72
2021/06/08 01:04:11;;;;;;;56.20;40.37;;;13.20;92.70;;;;;;5051837;28;20056;-72
2021/06/08 01:06:38;;;;;;;48.97;38.73;;;13.20;92.70;;;;;;5052979;28;20053;-72
2021/06/08 01:09:06;;;;;;;41.60;33.67;;;13.20;92.70;;;;;;5052863;28;20506;-72
2021/06/08 01:11:32;;;;;;;40.23;32.23;;;13.20;92.70;;;;;;5052049;28;20049;-72
2021/06/08 01:13:58;;;;;;;39.30;30.93;;;13.20;92.60;;;;;;5052416;28;20041;-72
2021/06/08 01:16:23;;;;;;;42.70;33.07;;;13.20;92.70;;;;;;5052487;28;20424;-72
2021/06/08 01:18:50;;;;;;;41.77;31.90;;;13.10;92.70;;;;;;5052012;28;20456;-72
2021/06/08 01:21:16;;;;;;;40.23;33.53;;;13.10;92.80;;;;;;5051980;28;20045;-72
2021/06/08 01:23:43;;;;;;;44.63;35.20;;;13.10;92.80;;;;;;5051791;28;20470;-72
2021/06/08 01:26:10;;;;;;;36.70;29.80;;;13.10;92.90;;;;;;5052153;28;20162;-72
2021/06/08 01:28:36;;;;;;;38.53;31.97;;;13.10;92.90;;;;;;5052148;28;20052;-72
2021/06/08 01:31:14;;;;;;;46.37;34.63;;;13.10;93.00;;;;;;5051131;28;20881;-73
2021/06/08 01:33:43;;;;;;;41.50;34.10;;;13.10;93.10;;;;;;5052523;28;20095;-72
2021/06/08 01:36:12;;;;;;;43.70;34.27;;;13.20;93.10;;;;;;5052018;28;20136;-72
2021/06/08 01:38:40;;;;;;;40.57;35.70;;;13.20;93.10;;;;;;5051267;28;20068;-72
2021/06/08 01:41:07;;;;;;;43.67;35.30;;;13.20;93.10;;;;;;5052004;28;20048;-72
2021/06/08 01:43:32;;;;;;;39.40;32.47;;;13.20;93.00;;;;;;5052218;28;20045;-72
2021/06/08 01:45:58;;;;;;;42.97;34.50;;;13.20;93.00;;;;;;5051092;28;20045;-72
2021/06/08 01:48:24;;;;;;;41.43;33.23;;;13.20;93.00;;;;;;5052213;28;20478;-72
2021/06/08 01:50:50;;;;;;;32.13;26.33;;;13.20;93.00;;;;;;5051762;28;20078;-72
2021/06/08 01:53:45;;;;;;;40.30;31.87;;;13.20;93.00;;;;;;5051106;28;20075;-72
2021/06/08 01:56:14;;;;;;;37.83;32.20;;;13.20;93.10;;;;;;5051382;28;20132;-72
2021/06/08 01:58:50;;;;;;;44.97;35.80;;;13.30;93.10;;;;;;5051965;28;20099;-72
2021/06/08 02:01:23;;;;;;;40.97;33.57;;;13.20;93.00;;;;;;5050789;28;20373;-72
2021/06/08 02:04:05;;;;;;;43.47;34.80;;;13.20;93.10;;;;;;5051715;28;20049;-72
2021/06/08 02:06:46;;;;;;;35.63;29.70;;;13.30;93.10;;;;;;5050975;28;20525;-72
2021/06/08 02:09:26;;;;;;;41.53;34.53;;;13.30;93.10;;;;;;5051092;28;20041;-72
2021/06/08 02:12:00;;;;;;;46.57;37.67;;;13.20;93.10;;;;;;5051415;28;20541;-72
2021/06/08 02:14:32;;;;;;;48.97;38.87;;;13.30;93.10;;;;;;5050893;28;20068;-72
2021/06/08 02:17:13;;;;;;;40.80;35.07;;;13.30;93.10;;;;;;5050981;28;20107;-72
2021/06/08 02:19:42;;;;;;;45.23;37.13;;;13.30;93.10;;;;;;5051568;28;20052;-72
2021/06/08 02:22:10;;;;;;;40.87;35.77;;;13.30;93.00;;;;;;5050555;28;20076;-72
2021/06/08 02:24:37;;;;;;;46.60;39.30;;;13.30;93.10;;;;;;5051181;28;20052;-72
2021/06/08 02:27:14;;;;;;;40.70;32.03;;;13.30;93.10;;;;;;5050062;28;20134;-72
2021/06/08 02:29:45;;;;;;;45.10;36.57;;;13.30;93.10;;;;;;5051232;28;20055;-72
2021/06/08 02:32:13;;;;;;;51.20;38.97;;;13.30;93.10;;;;;;5050832;28;20490;-72
2021/06/08 02:34:39;;;;;;;52.97;39.17;;;13.30;93.10;;;;;;5050546;28;20048;-72
2021/06/08 02:37:26;;;;;;;42.33;33.37;;;13.40;93.10;;;;;;5036341;28;20045;-72
2021/06/08 02:39:53;;;;;;;47.90;37.80;;;13.30;93.00;;;;;;5050868;28;20530;-72
2021/06/08 02:42:21;;;;;;;45.60;37.23;;;13.30;93.10;;;;;;5050102;28;20041;-71
2021/06/08 02:44:48;;;;;;;40.23;34.20;;;13.30;93.10;;;;;;5050965;28;20067;-71
2021/06/08 02:47:20;;;;;;;42.70;34.10;;;13.30;93.10;;;;;;5050960;28;20094;-72
2021/06/08 02:49:47;;;;;;;41.10;33.37;;;13.30;93.00;;;;;;5050042;28;20080;-72
2021/06/08 02:52:19;;;;;;;39.00;29.93;;;13.30;92.90;;;;;;5050866;28;20064;-72
2021/06/08 02:54:47;;;;;;;40.53;33.25;;;13.20;92.90;;;;;;5051051;28;20049;-71
2021/06/08 02:57:14;;;;;;;36.57;30.40;;;13.10;93.00;;;;;;5050077;28;20059;-72
2021/06/08 02:59:42;;;;;;;42.63;33.40;;;13.20;93.00;;;;;;5050907;28;20179;-71
2021/06/08 03:02:12;;;;;;;39.83;31.27;;;13.10;93.00;;;;;;5050780;28;20087;-72
2021/06/08 03:04:47;;;;;;;37.73;30.83;;;13.10;93.10;;;;;;5051064;28;20088;-72
2021/06/08 03:07:13;;;;;;;36.83;28.67;;;13.10;93.10;;;;;;5050883;28;20061;-71
2021/06/08 03:09:49;;;;;;;38.60;28.83;;;13.00;93.00;;;;;;5050230;28;20121;-72
2021/06/08 03:12:20;;;;;;;41.87;32.23;;;13.10;93.10;;;;;;5050930;28;20056;-73
2021/06/08 03:14:48;;;;;;;41.80;30.57;;;13.10;93.00;;;;;;5051110;28;20088;-73
2021/06/08 03:17:16;;;;;;;40.13;31.97;;;13.00;92.90;;;;;;5049815;28;20413;-72
2021/06/08 03:19:46;;;;;;;46.53;34.27;;;12.90;93.00;;;;;;5052551;28;20049;-72
2021/06/08 03:22:16;;;;;;;47.57;34.97;;;12.80;93.00;;;;;;5055014;28;20045;-72
2021/06/08 03:24:46;;;;;;;47.03;34.57;;;12.90;93.10;;;;;;5053936;28;20410;-72
2021/06/08 03:27:13;;;;;;;46.90;33.10;;;12.80;93.10;;;;;;5054548;28;20048;-72
2021/06/08 03:29:39;;;;;;;48.40;33.93;;;12.80;93.20;;;;;;5054833;28;20041;-72
2021/06/08 03:32:06;;;;;;;54.80;39.53;;;12.80;93.20;;;;;;5053924;28;20124;-73
2021/06/08 03:34:33;;;;;;;60.87;40.57;;;12.80;93.30;;;;;;5054816;28;20123;-73
2021/06/08 03:37:01;;;;;;;56.30;39.50;;;12.90;93.30;;;;;;5054480;28;20134;-72
2021/06/08 03:39:28;;;;;;;55.13;38.00;;;12.90;93.30;;;;;;5053926;28;20433;-72
2021/06/08 03:41:54;;;;;;;54.03;35.90;;;12.90;93.30;;;;;;5054616;28;20128;-73
2021/06/08 03:44:21;;;;;;;49.97;34.97;;;12.90;93.30;;;;;;5053988;28;20053;-72
2021/06/08 03:46:50;;;;;;;47.70;33.07;;;12.90;93.20;;;;;;5054507;28;20053;-72
2021/06/08 03:49:20;;;;;;;41.73;31.90;;;12.90;93.20;;;;;;5054101;28;20448;-72
2021/06/08 03:51:48;;;;;;;44.40;32.67;;;12.90;93.20;;;;;;5053651;28;20122;-72
2021/06/08 03:54:14;;;;;;;42.27;32.63;;;12.90;93.30;;;;;;5053928;28;20041;-72
2021/06/08 03:56:48;;;;;;;39.23;28.67;;;12.90;93.40;;;;;;5054114;28;20465;-72
2021/06/08 03:59:15;;;;;;;49.93;36.40;;;12.90;93.30;;;;;;5053298;28;20057;-72
2021/06/08 04:01:42;;;;;;;45.10;32.20;;;12.90;93.30;;;;;;5053842;28;20611;-72
2021/06/08 04:04:08;;;;;;;47.50;33.77;;;12.90;93.20;;;;;;5053927;28;20075;-72
2021/06/08 04:06:34;;;;;;;46.67;33.67;;;12.90;93.20;;;;;;5053459;28;20045;-72
2021/06/08 04:09:09;;;;;;;46.90;33.73;;;12.90;93.30;;;;;;5053496;28;20056;-72
2021/06/08 04:11:40;;;;;;;65.47;40.20;;;12.90;93.40;;;;;;5053993;28;20102;-72
2021/06/08 04:14:08;;;;;;;69.22;43.08;;;12.90;93.50;;;;;;5053120;28;20045;-72
2021/06/08 04:16:35;;;;;;;63.73;42.03;;;12.90;93.40;;;;;;5053907;28;20140;-72
2021/06/08 04:19:02;;;;;;;57.40;37.67;;;13.00;93.40;;;;;;5053453;28;20132;-72
2021/06/08 04:21:28;;;;;;;46.20;32.80;;;13.00;93.80;;;;;;5052910;28;20064;-72
2021/06/08 04:23:59;;;;;;;43.73;31.50;;;13.00;93.20;;;;;;5053439;28;20066;-72
2021/06/08 04:26:26;;;;;;;42.65;30.50;;;13.00;93.20;;;;;;5053524;28;20152;-71
2021/06/08 04:28:52;;;;;;;47.73;32.67;;;13.00;93.10;;;;;;5052663;28;20453;-72
2021/06/08 04:31:28;;;;;;;44.60;31.13;;;12.90;93.10;;;;;;5052333;28;20049;-72
2021/06/08 04:33:55;;;;;;;45.87;33.67;;;12.90;93.20;;;;;;5052417;28;20072;-72
2021/06/08 04:36:24;;;;;;;46.13;31.17;;;13.00;93.20;;;;;;5053127;28;20084;-72
2021/06/08 04:38:50;;;;;;;45.90;31.17;;;13.00;93.20;;;;;;5053433;28;20053;-72
2021/06/08 04:41:15;;;;;;;39.37;27.97;;;13.00;93.10;;;;;;5052221;28;20155;-73
2021/06/08 04:43:42;;;;;;;46.30;31.80;;;12.90;93.20;;;;;;5053324;28;20056;-72
2021/06/08 04:46:11;;;;;;;48.67;33.07;;;13.00;93.20;;;;;;5053112;28;20049;-72
2021/06/08 04:48:42;;;;;;;51.37;34.33;;;12.90;93.20;;;;;;5052679;28;20083;-72
2021/06/08 04:51:27;;;;;;;57.03;34.67;;;13.00;93.20;;;;;;5038381;28;20065;-73
2021/06/08 04:54:04;;;;;;;53.87;34.57;;;12.90;93.20;;;;;;5052898;28;20056;-73
2021/06/08 04:56:30;;;;;;;58.73;35.40;;;13.00;93.20;;;;;;5052397;28;20044;-72
2021/06/08 04:58:56;;;;;;;58.90;36.80;;;13.00;93.10;;;;;;5053002;28;20049;-72
2021/06/08 05:01:39;;;;;;;50.33;31.57;;;12.90;93.20;;;;;;5052500;28;20045;-73
2021/06/08 05:04:11;;;;;;;50.77;33.53;;;13.00;93.30;;;;;;5052048;28;20048;-72
2021/06/08 05:06:41;;;;;;;44.93;28.13;;;13.00;93.30;;;;;;5053169;28;20394;-73
2021/06/08 05:09:13;;;;;;;38.47;27.37;;;13.00;93.20;;;;;;5051730;28;20092;-72
2021/06/08 05:11:44;;;;;;;46.90;29.03;;;13.00;93.10;;;;;;5052966;28;20323;-72
2021/06/08 05:14:13;;;;;;;46.97;29.83;;;12.90;93.10;;;;;;5052551;28;20045;-72
2021/06/08 05:16:45;;;;;;;36.53;25.25;;;12.90;93.20;;;;;;5052187;28;20041;-72
2021/06/08 05:19:16;;;;;;;36.33;25.67;;;13.00;93.60;;;;;;5052622;28;20061;-72
2021/06/08 05:21:53;;;;;;;34.43;24.30;;;13.00;93.20;;;;;;5052466;28;20063;-73
2021/06/08 05:24:20;;;;;;;35.50;24.57;;;13.00;93.20;;;;;;5051601;28;20132;-72
2021/06/08 05:26:50;;;;;;;37.23;25.43;;;13.00;93.20;;;;;;5052277;28;20119;-72
2021/06/08 05:29:21;;;;;;;37.45;25.67;;;13.00;93.20;;;;;;5052456;28;20053;-72
2021/06/08 05:31:48;;;;;;;36.43;26.40;;;13.10;93.10;;;;;;5051394;28;20503;-72
2021/06/08 05:34:19;;;;;;;36.43;25.00;;;13.00;93.10;;;;;;5052004;28;20498;-72
2021/06/08 05:36:46;;;;;;;38.70;27.13;;;13.00;93.20;;;;;;5052217;28;20049;-72
2021/06/08 05:39:12;;;;;;;38.90;26.60;;;13.00;93.30;;;;;;5050857;28;20068;-72
2021/06/08 05:41:38;;;;;;;36.57;25.90;;;13.10;93.40;;;;;;5052028;28;20044;-71
2021/06/08 05:44:05;;;;;;;37.00;25.33;;;13.20;93.30;;;;;;5050858;28;20049;-72
2021/06/08 05:46:37;;;;;;;33.77;23.80;;;13.20;93.20;;;;;;5051762;28;20122;-72
2021/06/08 05:49:06;;;;;;;30.93;22.80;;;13.30;93.20;;;;;;5050737;28;20052;-72
2021/06/08 05:51:49;;;;;;;31.60;22.50;;;13.40;93.10;;;;;;5050922;28;20045;-72
2021/06/08 05:54:16;;;;;;;28.23;20.83;;;13.50;93.10;;;;;;5051409;28;20053;-72
2021/06/08 05:56:42;;;;;;;27.27;19.73;;;13.50;93.00;;;;;;5051772;28;20041;-72
2021/06/08 05:59:08;;;;;;;23.93;17.83;;;13.50;92.90;;;;;;5050673;28;20056;-73
2021/06/08 06:01:35;;;;;;;24.70;18.27;;;13.50;92.80;;;;;;5051845;28;20045;-73
2021/06/08 06:04:04;;;;;;;23.97;17.40;;;13.50;92.90;;;;;;5051501;28;20401;-73
2021/06/08 06:06:30;;;;;;;25.63;16.40;;;13.50;92.90;;;;;;5051022;28;20144;-73
2021/06/08 06:08:56;;;;;;;24.37;18.30;;;13.50;92.80;;;;;;5051571;28;20124;-72
2021/06/08 06:11:23;;;;;;;23.67;17.70;;;13.60;92.80;;;;;;5050820;28;20493;-72
2021/06/08 06:13:57;;;;;;;25.67;16.83;;;13.60;92.80;;;;;;5050974;28;20051;-72
2021/06/08 06:16:26;;;;;;;22.33;16.53;;;13.60;92.60;;;;;;5051388;28;20045;-74
2021/06/08 06:18:53;;;;;;;25.70;17.33;;;13.50;92.60;;;;;;5051688;28;20099;-73
2021/06/08 06:21:27;;;;;;;22.20;16.90;;;13.50;92.70;;;;;;5050908;28;20187;-73
2021/06/08 06:23:53;;;;;;;26.73;18.60;;;13.50;92.80;;;;;;5050756;28;20056;-74
2021/06/08 06:26:27;;;;;;;25.20;17.42;;;13.50;92.80;;;;;;5050362;28;20061;-74
2021/06/08 06:29:14;;;;;;;24.53;15.80;;;13.50;92.80;;;;;;5036407;28;20158;-74
2021/06/08 06:31:53;;;;;;;23.50;16.47;;;13.50;92.80;;;;;;5051480;28;20413;-74
2021/06/08 06:34:21;;;;;;;24.43;17.33;;;13.50;92.70;;;;;;5050390;28;20124;-74
2021/06/08 06:37:07;;;;;;;20.50;15.20;;;13.60;92.90;;;;;;5036267;28;20053;-74
2021/06/08 06:39:36;;;;;;;22.27;16.90;;;13.60;92.90;;;;;;5051467;28;20555;-71
2021/06/08 06:42:06;;;;;;;23.50;17.20;;;13.60;92.90;;;;;;5050177;28;20056;-72
2021/06/08 06:44:33;;;;;;;21.70;16.10;;;13.60;92.90;;;;;;5051406;28;20131;-73
2021/06/08 06:46:59;;;;;;;21.17;15.57;;;13.70;92.90;;;;;;5051000;28;20045;-75
2021/06/08 06:49:25;;;;;;;18.60;14.90;;;13.70;92.80;;;;;;5050290;28;20049;-73
2021/06/08 06:52:06;;;;;;;19.17;14.27;;;13.70;92.90;;;;;;5049912;28;20068;-72
2021/06/08 06:54:32;;;;;;;16.37;14.13;;;13.70;92.80;;;;;;5049701;28;20052;-72
2021/06/08 06:57:06;;;;;;;22.27;15.00;;;13.70;92.70;;;;;;5050148;28;20088;-72
2021/06/08 06:59:33;;;;;;;16.53;14.33;;;13.70;92.70;;;;;;5050979;28;20049;-72
2021/06/08 07:02:00;;;;;;;16.70;12.90;;;13.70;92.70;;;;;;5049684;28;20470;-72
2021/06/08 07:04:28;;;;;;;16.17;12.33;;;13.80;92.50;;;;;;5051153;28;20075;-72
2021/06/08 07:06:54;;;;;;;14.77;12.23;;;13.80;92.50;;;;;;5050952;28;20055;-72
2021/06/08 07:09:25;;;;;;;14.37;12.37;;;13.90;92.50;;;;;;5050258;28;20045;-73
2021/06/08 07:11:52;;;;;;;14.10;11.60;;;13.90;92.40;;;;;;5050840;28;20052;-73
2021/06/08 07:14:22;;;;;;;15.10;12.77;;;14.00;92.30;;;;;;5050787;28;20057;-72
2021/06/08 07:16:49;;;;;;;16.90;13.83;;;14.00;92.20;;;;;;5050026;28;20436;-72
2021/06/08 07:19:16;;;;;;;16.43;13.23;;;13.90;92.20;;;;;;5050576;28;20059;-72
2021/06/08 07:21:47;;;;;;;18.33;14.47;;;13.90;92.20;;;;;;5050954;28;20049;-75
2021/06/08 07:24:15;;;;;;;17.97;15.63;;;14.00;92.30;;;;;;5049435;28;20430;-75
2021/06/08 07:26:44;;;;;;;17.77;14.23;;;14.00;92.20;;;;;;5050197;28;20045;-73
2021/06/08 07:29:18;;;;;;;15.60;13.47;;;14.00;92.20;;;;;;5050565;28;20069;-74
2021/06/08 07:31:58;;;;;;;19.73;15.77;;;14.10;92.30;;;;;;5050105;28;20049;-74
2021/06/08 07:34:41;;;;;;;22.53;16.13;;;14.20;92.20;;;;;;5050731;28;20049;-73
2021/06/08 07:37:15;;;;;;;16.93;14.60;;;14.30;92.30;;;;;;5049717;28;20045;-71
2021/06/08 07:40:08;;;;;;;19.87;14.60;;;14.40;92.10;;;;;;5050205;28;20138;-72
2021/06/08 07:42:41;;;;;;;20.30;16.07;;;14.50;92.00;;;;;;5050539;28;20154;-72
2021/06/08 07:45:12;;;;;;;20.27;16.93;;;14.50;92.00;;;;;;5049180;28;20049;-72
2021/06/08 07:47:58;;;;;;;22.73;16.37;;;14.50;91.90;;;;;;5048895;28;20061;-72
2021/06/08 07:50:49;;;;;;;18.03;15.03;;;14.60;91.90;;;;;;5049089;28;20057;-73
2021/06/08 07:53:16;;;;;;;18.97;15.83;;;14.70;91.90;;;;;;5049726;28;20064;-72
2021/06/08 07:55:44;;;;;;;19.30;15.17;;;14.80;91.90;;;;;;5049694;28;20136;-72
2021/06/08 07:58:11;;;;;;;21.87;15.87;;;14.90;91.80;;;;;;5049021;28;20063;-73
2021/06/08 08:00:49;;;;;;;17.20;15.40;;;14.90;91.70;;;;;;5050074;28;20049;-73
2021/06/08 08:03:30;;;;;;;17.42;14.90;;;15.00;91.50;;;;;;5050348;28;20064;-73
2021/06/08 08:06:02;;;;;;;18.00;15.53;;;15.00;91.30;;;;;;5051555;28;20045;-73
2021/06/08 08:08:32;;;;;;;17.13;15.33;;;15.10;91.30;;;;;;5053864;28;20048;-73
2021/06/08 08:10:59;;;;;;;14.87;12.80;;;15.30;91.30;;;;;;5053024;28;20132;-73
2021/06/08 08:13:28;;;;;;;17.27;15.47;;;15.50;91.00;;;;;;5052979;28;20589;-73
2021/06/08 08:16:13;;;;;;;17.10;14.33;;;15.60;90.80;;;;;;5052765;28;20056;-73
2021/06/08 08:18:41;;;;;;;17.03;14.63;;;15.80;90.70;;;;;;5053433;28;20049;-74
2021/06/08 08:21:10;;;;;;;15.97;13.97;;;15.90;90.30;;;;;;5055645;28;20383;-73
2021/06/08 08:23:37;;;;;;;17.17;14.90;;;15.90;90.00;;;;;;5053608;28;20064;-73
2021/06/08 08:26:23;;;;;;;18.77;15.43;;;16.00;89.70;;;;;;5038016;28;20088;-73
2021/06/08 08:28:59;;;;;;;20.90;14.68;;;16.10;89.70;;;;;;5053179;28;20093;-74
2021/06/08 08:31:29;;;;;;;16.67;14.87;;;16.10;89.70;;;;;;5053298;28;20355;-74
2021/06/08 08:34:00;;;;;;;16.97;14.47;;;16.10;89.90;;;;;;5052417;28;20118;-73
2021/06/08 08:36:30;;;;;;;16.87;14.97;;;16.20;89.70;;;;;;5053769;28;20135;-73
2021/06/08 08:38:56;;;;;;;16.07;14.40;;;16.20;88.80;;;;;;5053583;28;20049;-73
2021/06/08 08:41:23;;;;;;;16.83;14.73;;;16.20;88.40;;;;;;5053075;28;20056;-73
2021/06/08 08:43:56;;;;;;;16.67;14.67;;;16.30;89.00;;;;;;5053544;28;20095;-72
2021/06/08 08:46:45;;;;;;;14.47;12.93;;;16.50;88.50;;;;;;5038509;28;20053;-73
2021/06/08 08:49:14;;;;;;;14.67;13.17;;;16.70;87.80;;;;;;5052203;28;20045;-73
2021/06/08 08:51:43;;;;;;;;;;;16.80;87.10;;;;;;5053855;28;20053;-73
2021/06/08 08:54:13;;;;;;;13.67;12.27;;;16.80;85.10;;;;;;5051511;28;20353;-73
2021/06/08 08:56:42;;;;;;;15.63;12.63;;;16.80;86.40;;;;;;5052763;28;20443;-73
2021/06/08 08:59:14;;;;;;;16.00;14.30;;;16.90;85.80;;;;;;5052504;28;20143;-73
2021/06/08 09:01:58;;;;;;;16.73;14.47;;;17.00;85.50;;;;;;5052177;28;20049;-73
2021/06/08 09:04:25;;;;;;;15.20;13.60;;;17.10;85.60;;;;;;5052776;28;20052;-73
2021/06/08 09:06:52;;;;;;;14.07;12.67;;;17.20;85.60;;;;;;5052424;28;20052;-73
2021/06/08 09:09:17;;;;;;;13.13;11.83;;;17.30;85.60;;;;;;5051361;28;20056;-73
2021/06/08 09:11:46;;;;;;;13.87;12.00;;;17.40;85.30;;;;;;5052539;28;20068;-72
2021/06/08 09:14:13;;;;;;;13.50;11.70;;;17.50;84.80;;;;;;5052451;28;20045;-72
2021/06/08 09:16:40;;;;;;;12.87;11.43;;;17.60;83.50;;;;;;5051680;28;20045;-73
2021/06/08 09:19:11;;;;;;;13.03;11.73;;;17.70;83.50;;;;;;5052244;28;20051;-73
2021/06/08 09:21:43;;;;;;;12.00;10.77;;;18.00;84.40;;;;;;5052761;28;20127;-73
2021/06/08 09:24:19;;;;;;;11.93;9.97;;;18.30;85.00;;;;;;5051443;28;20049;-72
2021/06/08 09:27:03;;;;;;;13.07;10.87;;;18.50;82.60;;;;;;5052195;28;20081;-74
2021/06/08 09:29:33;;;;;;;12.27;10.40;;;18.70;81.60;;;;;;5051695;28;20045;-74
2021/06/08 09:32:19;;;;;;;12.33;10.93;;;19.00;81.90;;;;;;5052163;28;20053;-72
2021/06/08 09:34:54;;;;;;;12.50;11.30;;;19.20;80.30;;;;;;5052316;28;20049;-73
2021/06/08 09:37:30;;;;;;;11.10;10.00;;;19.30;79.60;;;;;;5050806;28;20383;-73
2021/06/08 09:39:56;;;;;;;10.10;9.10;;;19.40;77.80;;;;;;5051996;28;20072;-73
2021/06/08 09:42:26;;;;;;;10.93;9.27;;;19.50;76.40;;;;;;5051739;28;20497;-73
2021/06/08 09:44:53;;;;;;;11.47;10.27;;;19.60;75.80;;;;;;5051066;28;20052;-72
2021/06/08 09:47:26;;;;;;;13.27;9.77;;;19.70;74.80;;;;;;5051629;28;20045;-72
2021/06/08 09:49:52;;;;;;;11.60;10.40;;;19.80;73.80;;;;;;5051836;28;20083;-72
2021/06/08 09:52:19;;;;;;;12.00;9.77;;;19.90;73.80;;;;;;5050877;28;20057;-72
2021/06/08 09:54:50;;;;;;;9.93;8.93;;;20.00;73.30;;;;;;5051869;28;20057;-72
2021/06/08 09:57:26;;;;;;;11.60;10.27;;;20.10;72.60;;;;;;5050488;28;20072;-72
2021/06/08 10:00:00;;;;;;;10.53;9.43;;;20.20;72.50;;;;;;5051535;28;20396;-72
2021/06/08 10:02:52;;;;;;;11.27;9.57;;;20.20;71.20;;;;;;5051676;28;20147;-72
2021/06/08 10:05:28;;;;;;;9.77;8.77;;;20.30;70.30;;;;;;5046035;28;20053;-73
2021/06/08 10:08:03;;;;;;;9.30;8.30;;;20.30;70.70;;;;;;5051343;28;20141;-72
2021/06/08 10:10:34;;;;;;;8.60;7.53;;;20.50;70.40;;;;;;5051370;28;20132;-72
2021/06/08 10:13:01;;;;;;;;;;;20.60;69.20;;;;;;5050815;28;20142;-72
2021/06/08 10:15:34;;;;;;;6.57;4.22;;;20.60;69.30;;;;;;5051281;28;19927;-72
2021/06/08 10:18:05;;;;;;;5.97;4.83;;;20.70;68.00;;;;;;5051096;28;20094;-73
2021/06/08 10:20:34;;;;;;;8.15;5.50;;;20.80;66.50;;;;;;5050451;28;20072;-72
2021/06/08 10:23:16;;;;;;;7.23;4.77;;;20.90;66.30;;;;;;5049797;28;20131;-72
2021/06/08 10:25:43;;;;;;;7.23;5.23;;;21.00;66.10;;;;;;5050434;28;20049;-72
2021/06/08 10:28:11;;;;;;;4.53;2.60;;;21.10;64.90;;;;;;5050197;28;20466;-73
2021/06/08 10:30:46;;;;;;;5.87;2.07;;;21.10;63.00;;;;;;5050328;28;20049;-72
2021/06/08 10:33:25;;;;;;;4.33;2.60;;;21.00;61.60;;;;;;5050076;28;20049;-72
2021/06/08 10:35:52;;;;;;;3.92;2.17;;;21.00;60.60;;;;;;5051016;28;20049;-73
2021/06/08 10:38:19;;;;;;;3.40;1.87;;;21.10;60.40;;;;;;5050944;28;20105;-72
2021/06/08 10:40:51;;;;;;;6.77;3.10;;;21.20;59.70;;;;;;5049774;28;20045;-72
2021/06/08 10:43:28;;;;;;;5.50;4.57;;;21.10;60.30;;;;;;5050897;28;20045;-73
2021/06/08 10:45:56;;;;;;;4.83;3.43;;;21.10;60.80;;;;;;5051061;28;20049;-72
2021/06/08 10:48:28;;;;;;;4.80;3.20;;;21.30;61.50;;;;;;5050110;28;20131;-72
2021/06/08 10:51:17;;;;;;;3.77;3.17;;;21.30;59.90;;;;;;5052054;28;20100;-76
2021/06/08 10:53:50;;;;;;;4.80;3.27;;;21.30;58.50;;;;;;5050064;28;20080;-71
2021/06/08 10:56:36;;;;;;;3.00;2.33;;;21.50;59.20;;;;;;5050413;28;20431;-71
2021/06/08 10:59:08;;;;;;;3.90;2.10;;;21.70;58.30;;;;;;5049912;28;20052;-72
2021/06/08 11:01:37;;;;;;;3.40;2.10;;;21.80;57.40;;;;;;5050066;28;20079;-71
2021/06/08 11:04:05;;;;;;;3.80;2.30;;;22.10;57.30;;;;;;5050296;28;20477;-71
2021/06/08 11:06:39;;;;;;;3.83;1.87;;;22.10;56.10;;;;;;5050935;28;20045;-71
2021/06/08 11:09:12;;;;;;;2.97;1.90;;;22.20;55.00;;;;;;5049904;28;20044;-72
2021/06/08 11:11:45;;;;;;;3.23;1.37;;;22.20;55.20;;;;;;5050501;28;20052;-72
2021/06/08 11:15:14;;;;;;;5.10;2.20;;;22.30;55.00;;;;;;5050540;28;20048;-71
2021/06/08 11:17:29;;;;;;;4.93;1.50;;;22.40;55.10;;;;;;5041277;28;20056;-72
2021/06/08 11:20:00;;;;;;;2.95;1.40;;;22.40;53.70;;;;;;5051167;28;20053;-72
2021/06/08 11:22:54;;;;;;;3.00;1.40;;;22.50;54.10;;;;;;5049994;28;20126;-72
2021/06/08 11:25:42;;;;;;;2.95;1.80;;;22.60;53.40;;;;;;5050123;28;20532;-72
2021/06/08 11:28:13;;;;;;;1.65;0.80;;;22.70;53.80;;;;;;5050229;28;20111;-72
2021/06/08 11:30:42;;;;;;;;;;;22.80;53.00;;;;;;5050314;28;20393;-72
2021/06/08 11:33:31;;;;;;;1.10;0.75;;;22.80;52.80;;;;;;5050062;28;19975;-71
2021/06/08 11:35:59;;;;;;;2.47;0.82;;;22.80;50.60;;;;;;5049345;28;20839;-72
2021/06/08 11:38:28;;;;;;;1.47;0.73;;;22.80;52.10;;;;;;5050696;28;20115;-72
2021/06/08 11:41:00;;;;;;;1.92;0.80;;;22.80;51.60;;;;;;5051782;28;20053;-72
2021/06/08 11:43:29;;;;;;;2.97;1.05;;;22.90;51.30;;;;;;5053587;28;20076;-72
2021/06/08 11:46:11;;;;;;;4.07;1.70;;;22.90;51.50;;;;;;5053764;28;20056;-72
2021/06/08 11:48:39;;;;;;;3.85;2.05;;;22.90;51.90;;;;;;5054738;28;20144;-72
2021/06/08 11:51:33;;;;;;;3.92;1.90;;;22.90;51.90;;;;;;5053179;28;20076;-74
2021/06/08 11:53:59;;;;;;;4.90;2.05;;;23.00;50.60;;;;;;5053681;28;20128;-72
2021/06/08 11:56:48;;;;;;;3.58;1.83;;;23.10;51.40;;;;;;5054149;28;20120;-72
2021/06/08 11:59:16;;;;;;;2.97;2.30;;;23.20;50.30;;;;;;5053892;28;20053;-73
2021/06/08 12:01:44;;;;;;;4.80;2.45;;;23.20;51.20;;;;;;5053980;28;20061;-72
2021/06/08 12:04:11;;;;;;;3.60;3.30;;;23.20;50.60;;;;;;5053113;28;20134;-73
2021/06/08 12:07:03;;;;;;;6.28;3.20;;;23.30;51.60;;;;;;5053508;28;20465;-73
2021/06/08 12:09:50;;;;;;;6.10;3.40;;;23.30;51.00;;;;;;5053810;28;20048;-73
2021/06/08 12:12:17;;;;;;;5.53;3.75;;;23.30;52.30;;;;;;5051825;28;20048;-73
2021/06/08 12:14:47;;;;;;;6.38;3.83;;;23.40;52.60;;;;;;5053909;28;20056;-73
2021/06/08 12:17:15;;;;;;;6.15;3.38;;;23.40;52.20;;;;;;5053583;28;20076;-73
2021/06/08 12:19:42;;;;;;;4.72;3.28;;;23.40;52.00;;;;;;5053027;28;20048;-73
2021/06/08 12:22:20;;;;;;;5.70;3.38;;;23.50;53.00;;;;;;5053342;28;20483;-73
2021/06/08 12:25:03;;;;;;;4.45;3.28;;;23.70;51.90;;;;;;5053861;28;20045;-73
2021/06/08 12:27:37;;;;;;;4.47;3.20;;;23.80;52.80;;;;;;5053213;28;20053;-73
2021/06/08 12:30:07;;;;;;;4.47;3.60;;;23.80;52.70;;;;;;5053043;28;20048;-73
2021/06/08 12:32:33;;;;;;;5.55;3.58;;;23.90;53.00;;;;;;5052808;28;20490;-73
2021/06/08 12:34:59;;;;;;;6.88;4.05;;;23.80;52.50;;;;;;5053236;28;20041;-74
2021/06/08 12:37:29;;;;;;;8.13;4.50;;;23.80;52.10;;;;;;5053409;28;20132;-74
2021/06/08 12:39:57;;;;;;;6.40;5.05;;;23.80;52.20;;;;;;5052482;28;20077;-73
2021/06/08 12:42:24;;;;;;;5.55;4.38;;;23.90;52.10;;;;;;5053404;28;20127;-74
2021/06/08 12:44:51;;;;;;;7.63;4.95;;;23.90;52.70;;;;;;5053205;28;20045;-73
2021/06/08 12:47:19;;;;;;;6.63;4.20;;;23.90;52.90;;;;;;5052216;28;20072;-73
2021/06/08 12:49:45;;;;;;;5.18;4.50;;;23.90;52.70;;;;;;5052954;28;20125;-73
2021/06/08 12:52:16;;;;;;;5.78;4.53;;;23.90;52.00;;;;;;5051712;28;20448;-72